This is the latest recevied weather packets stored in our database for station/object SP1BMW-13. If no packets are shown the sender has not sent any weather packets the latest 1 day(s).
| Time | Temp. | Humidity | Pressure | Rain* | Wind** | Luminosity | Snow |
|---|---|---|---|---|---|---|---|
| 1778057392 | 9.44° C | 95% | 1005.1 hPa | 0.25 mm | 0.45 m/s, 55° | 30 W/m² | - |
| 1778057331 | 9.44° C | 95% | 1005 hPa | 0.25 mm | 0.45 m/s, 42° | 33 W/m² | - |
| 1778057212 | 9.44° C | 95% | 1004.8 hPa | 0.25 mm | 0 m/s | 52 W/m² | - |
| 1778056971 | 9.44° C | 95% | 1004.7 hPa | 0.25 mm | 0 m/s | 63 W/m² | - |
| 1778056911 | 9.44° C | 95% | 1004.7 hPa | 0.25 mm | 0.89 m/s, 53° | 63 W/m² | - |
| 1778056852 | 9.44° C | 95% | 1004.9 hPa | 0.25 mm | 0.45 m/s, 27° | 59 W/m² | - |
| 1778056792 | 9.44° C | 95% | 1004.6 hPa | 0.51 mm | 0 m/s | 57 W/m² | - |
| 1778056671 | 9.44° C | 95% | 1004.9 hPa | 0.51 mm | 0.89 m/s, 48° | 72 W/m² | - |
| 1778056551 | 9.44° C | 95% | 1004.7 hPa | 0.51 mm | 1.79 m/s, 34° | 77 W/m² | - |
| 1778056431 | 9.44° C | 95% | 1004.7 hPa | 0.51 mm | 0.89 m/s, 67° | 79 W/m² | - |
| 1778056372 | 9.44° C | 95% | 1004.7 hPa | 0.51 mm | 0.89 m/s, 47° | 83 W/m² | - |
| 1778056312 | 9.44° C | 95% | 1004.7 hPa | 0.51 mm | 0 m/s | 78 W/m² | - |
| 1778056132 | 9.44° C | 95% | 1005 hPa | 0.51 mm | 1.79 m/s, 41° | 71 W/m² | - |
| 1778056072 | 9.44° C | 95% | 1004.6 hPa | 0.51 mm | 1.34 m/s, 34° | 75 W/m² | - |
| 1778055772 | 9.44° C | 95% | 1004.8 hPa | 0.51 mm | 0.89 m/s, 353° | 54 W/m² | - |
| 1778055712 | 10° C | 95% | 1004.7 hPa | 0.51 mm | 0.89 m/s, 31° | 56 W/m² | - |
| 1778055592 | 10° C | 95% | 1004.7 hPa | 0.51 mm | 0.45 m/s, 7° | 51 W/m² | - |
| 1778055532 | 10° C | 95% | 1004.7 hPa | 0.51 mm | 2.24 m/s, 339° | 50 W/m² | - |
| 1778055472 | 10° C | 95% | 1004.8 hPa | 0.51 mm | 0.89 m/s, 320° | 52 W/m² | - |
| 1778055412 | 10° C | 95% | 1004.8 hPa | 0.51 mm | 1.79 m/s, 27° | 48 W/m² | - |
| 1778055352 | 10° C | 95% | 1004.8 hPa | 0.51 mm | 0.89 m/s, 54° | 50 W/m² | - |
| 1778055172 | 10° C | 95% | 1005 hPa | 0.25 mm | 1.34 m/s, 33° | 35 W/m² | - |
| 1778055111 | 10° C | 95% | 1005 hPa | 0.25 mm | 1.34 m/s, 68° | 30 W/m² | - |
| 1778055051 | 10° C | 95% | 1004.7 hPa | 0.25 mm | 0.89 m/s, 317° | 32 W/m² | - |
| 1778054872 | 10° C | 95% | 1004.8 hPa | 0.25 mm | 1.34 m/s, 47° | 55 W/m² | - |
* Rain latest hour (hover to see other rain measurements)
** Current wind speed in m/s (hover to see current wind gust speed)